Aviation Digital Data Service (ADDS)

Output produced by METARs form (2052 UTC 29 May 2017)
found at http://www.aviationweather.gov/adds/metars/
 
RPLC 292000Z 01002KT 9999 SCT020 OVC090 26/24 Q1011 NOSIG RMK A2985
TAF RPLC 291700Z 2918/3024 23008KT 9999 SCT020 BKN100 TX34/3006Z TN25/2921Z 
     TEMPO 2918/2924 34010KT 7000 TS -SHRA FEW015CB SCT020 BKN100 
     TEMPO 3006/3012 16008KT 9000 -SHRA SCT018 BKN100
       
TAF RPVD 291700Z 2918/3018 07004KT 9999 FEW015 BKN220 
     TEMPO 2918/2924 00000KT 9000 -SHRA FEW014CB SCT015 BKN080
       
RPMD 292000Z 02004KT 9999 FEW016 SCT290 26/25 Q1010 RMK A2983
TAF RPMD 291700Z 2918/3018 18006KT 9999 FEW016 SCT090 BKN290 
     TEMPO 2918/2924 36004KT 9000 -SHRA FEW015CB SCT016 BKN090
       
RPLI 291800Z 00000KT 9999 FEW019 OVC100 26/25 Q1009 NOSIG RMK A2980
TAF RPLI 291700Z 2918/3018 22008KT 9999 FEW019 BKN100 
     TEMPO 2918/2924 14004KT 9000 -SHRA FEW018CB SCT019 BKN090
       
TAF RPVM 291700Z 2918/3024 06006KT 9999 FEW020 BNN300 
     TEMPO 2918/ 2924 VRB02KT FEW020 SCT100 BKN300 
     TEMPO 3006/3012 05008KT 9000 -SHRA FEW018CB SCT020 BKN100
       
RPLB 292000Z 04004KT 9999 FEW020 BKN300 26/24 Q1008 NOSIG RMK A2977
TAF RPLB 291700Z 2918/3018 12007KT 9999 FEW020 SCT080 BKN300 TX33/3006Z TN25/2921Z 
     TEMPO 2918/2924 VRB03KT 9000 TS -SHRA FEW016CB FEW018 BKN080 OVC300
       
RPLC 292000Z 01002KT 9999 SCT020 OVC090 26/24 Q1011 NOSIG RMK A2985
TAF RPLC 291700Z 2918/3024 23008KT 9999 SCT020 BKN100 TX34/3006Z TN25/2921Z 
     TEMPO 2918/2924 34010KT 7000 TS -SHRA FEW015CB SCT020 BKN100 
     TEMPO 3006/3012 16008KT 9000 -SHRA SCT018 BKN100
       
RPLI 291800Z 00000KT 9999 FEW019 OVC100 26/25 Q1009 NOSIG RMK A2980
TAF RPLI 291700Z 2918/3018 22008KT 9999 FEW019 BKN100 
     TEMPO 2918/2924 14004KT 9000 -SHRA FEW018CB SCT019 BKN090
       
RPLL 292000Z 05004KT 010V070 9999 FEW023 28/28 Q1009 NOSIG RMK A2980
TAF RPLL 291700Z 2918/3024 22006KT 9999 FEW025 BKN100 TX34/3006Z TN27/2921Z 
     TEMPO 2918/2924 VRB02KT FEW023 BKN100 
     TEMPO 3006/ 3012 25008KT 9000 -SHRA FEW022CB SCT023 BKN100
       
RPMD 292000Z 02004KT 9999 FEW016 SCT290 26/25 Q1010 RMK A2983
TAF RPMD 291700Z 2918/3018 18006KT 9999 FEW016 SCT090 BKN290 
     TEMPO 2918/2924 36004KT 9000 -SHRA FEW015CB SCT016 BKN090
       
TAF RPMR 291700Z 2918/3018 19006KT 9999 FEW018 BKN080 
     TEMPO 2918/2924 23004KT 9000 -SHRA FEW017CB SCT018 BKN080
       
RPMZ 291800Z 24004KT 9999 FEW017 BKN300 27/25 Q1011 RMK A2985
TAF RPMZ 291700Z 2918/3018 22004KT 9999 FEW018 BKN100 
     TEMPO 2918/2924 00000KT 9000 -SHRA FEW017CB SCT018 BKN100
       
TAF RPVD 291700Z 2918/3018 07004KT 9999 FEW015 BKN220 
     TEMPO 2918/2924 00000KT 9000 -SHRA FEW014CB SCT015 BKN080
       
TAF RPVM 291700Z 2918/3024 06006KT 9999 FEW020 BNN300 
     TEMPO 2918/ 2924 VRB02KT FEW020 SCT100 BKN300 
     TEMPO 3006/3012 05008KT 9000 -SHRA FEW018CB SCT020 BKN100
       
RPVP 291800Z 27006KT 9999 FEW020 26/24 Q1010 RMK A2983
TAF RPVP 291700Z 2918/3018 18006KT 9999 FEW019 SCT080 BKN240 
     TEMPO 2918/2924 27008KT 9000 -SHRA FEW017CB SCT019 BKN080
       
RPLL 292000Z 05004KT 010V070 9999 FEW023 28/28 Q1009 NOSIG RMK A2980
TAF RPLL 291700Z 2918/3024 22006KT 9999 FEW025 BKN100 TX34/3006Z TN27/2921Z 
     TEMPO 2918/2924 VRB02KT FEW023 BKN100 
     TEMPO 3006/ 3012 25008KT 9000 -SHRA FEW022CB SCT023 BKN100
       
RPVP 291800Z 27006KT 9999 FEW020 26/24 Q1010 RMK A2983
TAF RPVP 291700Z 2918/3018 18006KT 9999 FEW019 SCT080 BKN240 
     TEMPO 2918/2924 27008KT 9000 -SHRA FEW017CB SCT019 BKN080
       
RPLB 292000Z 04004KT 9999 FEW020 BKN300 26/24 Q1008 NOSIG RMK A2977
TAF RPLB 291700Z 2918/3018 12007KT 9999 FEW020 SCT080 BKN300 TX33/3006Z TN25/2921Z 
     TEMPO 2918/2924 VRB03KT 9000 TS -SHRA FEW016CB FEW018 BKN080 OVC300
       
TAF RPMR 291700Z 2918/3018 19006KT 9999 FEW018 BKN080 
     TEMPO 2918/2924 23004KT 9000 -SHRA FEW017CB SCT018 BKN080
       
RPMZ 291800Z 24004KT 9999 FEW017 BKN300 27/25 Q1011 RMK A2985
TAF RPMZ 291700Z 2918/3018 22004KT 9999 FEW018 BKN100 
     TEMPO 2918/2924 00000KT 9000 -SHRA FEW017CB SCT018 BKN100